createdAt,value
2023-01-28T00:00:03.458Z,-2.18
2023-01-28T00:03:05.686Z,-2.17
2023-01-28T00:06:11.687Z,-2.16
2023-01-28T00:09:14.355Z,-2.10
2023-01-28T00:12:17.745Z,-2.05
2023-01-28T00:15:20.069Z,-2.05
2023-01-28T00:18:21.968Z,-2.08
2023-01-28T00:21:24.187Z,-2.09
2023-01-28T00:24:26.163Z,-2.07
2023-01-28T00:27:29.510Z,-2.01
2023-01-28T00:30:31.381Z,-2.01
2023-01-28T00:33:33.634Z,-2.01
2023-01-28T00:36:35.545Z,-2.06
2023-01-28T00:39:37.467Z,-2.03
2023-01-28T00:42:41.378Z,-2.17
2023-01-28T00:45:43.646Z,-2.22
2023-01-28T00:48:46.377Z,-2.20
2023-01-28T00:51:48.588Z,-2.17
2023-01-28T00:54:50.458Z,-2.04
2023-01-28T00:57:54.266Z,-1.98
2023-01-28T01:00:56.781Z,-2.03
2023-01-28T01:03:58.823Z,-2.03
2023-01-28T01:07:00.807Z,-2.14
2023-01-28T01:10:02.796Z,-2.16
2023-01-28T01:13:07.452Z,-2.32
2023-01-28T01:16:11.672Z,-2.33
2023-01-28T01:19:13.697Z,-2.27
2023-01-28T01:22:16.233Z,-2.33
2023-01-28T01:25:19.082Z,-2.43
2023-01-28T01:28:22.962Z,-2.43
2023-01-28T01:31:24.876Z,-2.36
2023-01-28T01:34:27.814Z,-2.22
2023-01-28T01:37:30.039Z,-2.22
2023-01-28T01:40:33.035Z,-2.18
2023-01-28T01:43:51.519Z,-2.16
2023-01-28T01:46:54.194Z,-2.15
2023-01-28T01:49:57.301Z,-2.09
2023-01-28T01:53:05.210Z,-2.08
2023-01-28T01:56:10.684Z,-2.11
2023-01-28T01:59:18.124Z,-2.15
2023-01-28T02:02:24.328Z,-2.11
2023-01-28T02:05:26.511Z,-2.29
2023-01-28T02:08:28.509Z,-2.23
2023-01-28T02:11:33.891Z,-2.27
2023-01-28T02:14:41.476Z,-2.15
2023-01-28T02:17:45.516Z,-2.25
2023-01-28T02:21:10.543Z,-2.28
2023-01-28T02:24:37.405Z,-2.30
2023-01-28T02:27:58.094Z,-2.67
2023-01-28T02:31:11.136Z,-2.66
2023-01-28T02:34:18.828Z,-2.56
2023-01-28T02:37:25.586Z,-2.37
2023-01-28T02:40:31.505Z,-2.50
2023-01-28T02:43:36.926Z,-2.60
2023-01-28T02:46:38.722Z,-2.51
2023-01-28T02:49:44.455Z,-2.48
2023-01-28T02:52:56.521Z,-2.60
2023-01-28T02:56:13.327Z,-2.61
2023-01-28T02:59:23.545Z,-2.47
2023-01-28T03:02:33.323Z,-2.38
2023-01-28T03:05:38.998Z,-2.43
2023-01-28T03:08:45.851Z,-2.50
2023-01-28T03:11:51.440Z,-2.48
2023-01-28T03:14:58.246Z,-2.37
2023-01-28T03:18:06.256Z,-2.43
2023-01-28T03:21:11.196Z,-2.44
2023-01-28T03:24:17.712Z,-2.36
2023-01-28T03:27:26.816Z,-2.32
2023-01-28T03:30:38.297Z,-2.33
2023-01-28T03:33:42.432Z,-2.37
2023-01-28T03:36:46.518Z,-2.37
2023-01-28T03:39:48.923Z,-2.39
2023-01-28T03:42:50.960Z,-2.32
2023-01-28T03:45:54.291Z,-2.30
2023-01-28T03:48:57.091Z,-2.38
2023-01-28T03:51:59.386Z,-2.29
2023-01-28T03:55:01.726Z,-2.28
2023-01-28T03:58:04.049Z,-2.29
2023-01-28T04:01:08.548Z,-2.42
2023-01-28T04:04:10.335Z,-2.41
2023-01-28T04:07:13.947Z,-2.33
2023-01-28T04:10:16.795Z,-2.34
2023-01-28T04:13:19.041Z,-2.42
2023-01-28T04:16:22.921Z,-2.38
2023-01-28T04:19:25.624Z,-2.30
2023-01-28T04:22:27.391Z,-2.27
2023-01-28T04:25:30.461Z,-2.36
2023-01-28T04:28:32.695Z,-2.33
2023-01-28T04:31:36.969Z,-2.42
2023-01-28T04:34:38.856Z,-2.41
2023-01-28T04:37:41.722Z,-2.40
2023-01-28T04:40:44.330Z,-2.55
2023-01-28T04:43:46.832Z,-2.63
2023-01-28T04:46:50.688Z,-2.71
2023-01-28T04:49:52.522Z,-2.64
2023-01-28T04:52:54.812Z,-2.69
2023-01-28T04:55:58.490Z,-2.53
2023-01-28T04:59:00.478Z,-2.44
2023-01-28T05:02:04.395Z,-2.41
2023-01-28T05:05:07.365Z,-2.36
2023-01-28T05:08:09.390Z,-2.29
2023-01-28T05:11:11.686Z,-2.25
2023-01-28T05:14:14.204Z,-2.15
2023-01-28T05:17:17.683Z,-2.11
2023-01-28T05:20:19.898Z,-2.11
2023-01-28T05:23:22.665Z,-2.18
2023-01-28T05:26:24.780Z,-2.15
2023-01-28T05:29:27.020Z,-2.19
2023-01-28T05:32:30.470Z,-2.29
2023-01-28T05:35:32.465Z,-2.19
2023-01-28T05:38:34.496Z,-2.24
2023-01-28T05:41:36.591Z,-2.17
2023-01-28T05:44:40.992Z,-2.20
2023-01-28T05:47:45.807Z,-2.34
2023-01-28T05:50:48.075Z,-2.33
2023-01-28T05:53:50.368Z,-2.30
2023-01-28T05:56:52.876Z,-2.23
2023-01-28T05:59:55.112Z,-2.29
2023-01-28T06:02:58.727Z,-2.26
2023-01-28T06:06:01.024Z,-2.28
2023-01-28T06:09:03.347Z,-2.22
2023-01-28T06:12:06.614Z,-2.13
2023-01-28T06:15:10.071Z,-2.12
2023-01-28T06:18:13.231Z,-2.12
2023-01-28T06:21:15.239Z,-2.15
2023-01-28T06:24:17.695Z,-2.24
2023-01-28T06:27:20.027Z,-2.21
2023-01-28T06:30:21.802Z,-2.25
2023-01-28T06:33:25.115Z,-2.36
2023-01-28T06:36:27.135Z,-2.32
2023-01-28T06:39:29.568Z,-2.26
2023-01-28T06:42:31.474Z,-2.15
2023-01-28T06:45:34.342Z,-2.21
2023-01-28T06:48:37.658Z,-2.15
2023-01-28T06:51:39.660Z,-2.14
2023-01-28T06:54:41.847Z,-2.13
2023-01-28T06:57:43.933Z,-2.23
2023-01-28T07:00:45.912Z,-2.16
2023-01-28T07:03:49.439Z,-2.06
2023-01-28T07:06:51.197Z,-2.06
2023-01-28T07:09:53.087Z,-2.09
2023-01-28T07:12:54.939Z,-2.04
2023-01-28T07:15:56.807Z,-2.04
2023-01-28T07:19:00.570Z,-1.98
2023-01-28T07:22:02.416Z,-1.98
2023-01-28T07:25:05.872Z,-1.95
2023-01-28T07:28:07.980Z,-1.92
2023-01-28T07:31:10.348Z,-1.91
2023-01-28T07:34:14.537Z,-1.93
2023-01-28T07:37:16.457Z,-1.90
2023-01-28T07:40:18.757Z,-1.89
2023-01-28T07:43:21.059Z,-1.89
2023-01-28T07:46:22.840Z,-1.91
2023-01-28T07:49:26.531Z,-1.89
2023-01-28T07:52:28.412Z,-1.88
2023-01-28T07:55:31.515Z,-1.88
2023-01-28T07:58:33.849Z,-1.85
2023-01-28T08:01:35.745Z,-1.78
2023-01-28T08:04:39.224Z,-1.74
2023-01-28T08:07:41.229Z,-1.76
2023-01-28T08:10:43.317Z,-1.78
2023-01-28T08:13:45.269Z,-1.75
2023-01-28T08:16:47.406Z,-1.74
2023-01-28T08:19:50.759Z,-1.74
2023-01-28T08:22:53.069Z,-1.68
2023-01-28T08:25:57.863Z,-1.70
2023-01-28T08:28:59.696Z,-1.65
2023-01-28T08:32:01.585Z,-1.65
2023-01-28T08:35:06.130Z,-1.62
2023-01-28T08:38:09.067Z,-1.58
2023-01-28T08:41:11.865Z,-1.58
2023-01-28T08:44:13.680Z,-1.54
2023-01-28T08:47:15.713Z,-1.51
2023-01-28T08:50:19.791Z,-1.49
2023-01-28T08:53:21.694Z,-1.61
2023-01-28T08:56:23.746Z,-1.54
2023-01-28T08:59:25.657Z,-1.50
2023-01-28T09:02:31.932Z,-1.58
2023-01-28T09:05:36.583Z,-1.50
2023-01-28T09:08:38.571Z,-1.43
2023-01-28T09:11:40.436Z,-1.49
2023-01-28T09:14:42.508Z,-1.44
2023-01-28T09:17:44.316Z,-1.44
2023-01-28T09:20:48.626Z,-1.42
2023-01-28T09:23:50.775Z,-1.44
2023-01-28T09:26:52.840Z,-1.42
2023-01-28T09:29:54.750Z,-1.38
2023-01-28T09:32:57.754Z,-1.44
2023-01-28T09:36:02.270Z,-1.37
2023-01-28T09:39:04.393Z,-1.37
2023-01-28T09:42:28.128Z,-1.42
2023-01-28T09:45:37.464Z,-1.52
2023-01-28T09:48:44.747Z,-1.53
2023-01-28T09:51:52.154Z,-1.47
2023-01-28T09:54:59.956Z,-1.49
2023-01-28T09:58:02.140Z,-1.59
2023-01-28T10:01:23.139Z,-1.55
2023-01-28T10:04:44.469Z,-1.59
2023-01-28T10:07:57.676Z,-1.55
2023-01-28T10:11:07.599Z,-1.60
2023-01-28T10:14:17.329Z,-1.49
2023-01-28T10:17:29.278Z,-1.50
2023-01-28T10:20:36.437Z,-1.45
2023-01-28T10:23:49.427Z,-1.37
2023-01-28T10:26:52.693Z,-1.38
2023-01-28T10:29:54.781Z,-1.43
2023-01-28T10:33:01.901Z,-1.45
2023-01-28T10:36:05.020Z,-1.41
2023-01-28T10:39:10.785Z,-1.32
2023-01-28T10:42:27.508Z,-1.26
2023-01-28T10:45:34.649Z,-1.19
2023-01-28T10:48:42.968Z,-1.13
2023-01-28T10:51:44.881Z,-1.15
2023-01-28T10:54:58.920Z,-1.17
2023-01-28T10:58:03.999Z,-1.15
2023-01-28T11:01:07.607Z,-1.13
2023-01-28T11:04:22.430Z,-1.00
2023-01-28T11:07:24.454Z,-1.13
2023-01-28T11:10:30.840Z,-1.16
2023-01-28T11:13:32.604Z,-1.13
2023-01-28T11:16:34.573Z,-1.20
2023-01-28T11:19:39.079Z,-1.13
2023-01-28T11:22:43.491Z,-1.15
2023-01-28T11:25:46.974Z,-1.07
2023-01-28T11:28:50.409Z,-1.00
2023-01-28T11:31:54.273Z,-1.08
2023-01-28T11:34:57.048Z,-0.99
2023-01-28T11:37:59.741Z,-0.99
2023-01-28T11:41:03.127Z,-1.03
2023-01-28T11:44:16.529Z,-1.10
2023-01-28T11:47:38.994Z,-1.07
2023-01-28T11:50:51.697Z,-1.16
2023-01-28T11:54:07.147Z,-1.24
2023-01-28T11:57:22.242Z,-1.15
2023-01-28T12:00:38.657Z,-1.35
2023-01-28T12:03:51.631Z,-1.33
2023-01-28T12:07:18.316Z,-1.33
2023-01-28T12:10:31.874Z,-1.25
2023-01-28T12:13:55.646Z,-1.16
2023-01-28T12:17:12.968Z,-1.20
2023-01-28T12:20:24.556Z,-1.30
2023-01-28T12:23:48.255Z,-1.39
2023-01-28T12:27:01.892Z,-1.45
2023-01-28T12:30:19.153Z,-1.35
2023-01-28T12:33:41.575Z,-1.38
2023-01-28T12:36:56.052Z,-1.36
2023-01-28T12:40:14.750Z,-1.22
2023-01-28T12:43:22.775Z,-1.27
2023-01-28T12:46:38.714Z,-1.35
2023-01-28T12:49:46.649Z,-1.34
2023-01-28T12:52:53.780Z,-1.38
2023-01-28T12:56:00.819Z,-1.33
2023-01-28T12:59:10.640Z,-1.36
2023-01-28T13:02:24.513Z,-1.43
2023-01-28T13:05:33.315Z,-1.39
2023-01-28T13:08:35.385Z,-1.35
2023-01-28T13:11:38.066Z,-1.33
2023-01-28T13:14:41.363Z,-1.47
2023-01-28T13:17:56.080Z,-1.43
2023-01-28T13:20:58.593Z,-1.39
2023-01-28T13:24:07.027Z,-1.49
2023-01-28T13:27:21.350Z,-1.51
2023-01-28T13:30:26.237Z,-1.41
2023-01-28T13:33:32.906Z,-1.32
2023-01-28T13:36:39.843Z,-1.39
2023-01-28T13:39:49.812Z,-1.40
2023-01-28T13:43:03.291Z,-1.43
2023-01-28T13:46:07.449Z,-1.44
2023-01-28T13:49:18.691Z,-1.51
2023-01-28T13:52:26.656Z,-1.52
2023-01-28T13:55:43.996Z,-1.34
2023-01-28T13:59:15.909Z,-1.42
2023-01-28T14:02:42.605Z,-1.51
2023-01-28T14:06:11.711Z,-1.45
2023-01-28T14:09:42.977Z,-1.35
2023-01-28T14:13:29.099Z,-1.30
2023-01-28T14:16:41.107Z,-1.34
2023-01-28T14:19:45.166Z,-1.47
2023-01-28T14:22:49.204Z,-1.46
2023-01-28T14:26:03.212Z,-1.41
2023-01-28T14:29:31.740Z,-1.35
2023-01-28T14:32:35.315Z,-1.36
2023-01-28T14:35:44.077Z,-1.43
2023-01-28T14:38:48.276Z,-1.43
2023-01-28T14:41:53.426Z,-1.54
2023-01-28T14:45:09.979Z,-1.57
2023-01-28T14:48:23.635Z,-1.46
2023-01-28T14:51:42.679Z,-1.42
2023-01-28T14:54:56.676Z,-1.36
2023-01-28T14:58:02.923Z,-1.43
2023-01-28T15:01:05.036Z,-1.43
2023-01-28T15:04:23.340Z,-1.49
2023-01-28T15:07:27.595Z,-1.50
2023-01-28T15:10:35.601Z,-1.44
2023-01-28T15:13:40.828Z,-1.53
2023-01-28T15:16:48.295Z,-1.53
2023-01-28T15:19:50.954Z,-1.39
2023-01-28T15:22:53.565Z,-1.27
2023-01-28T15:25:57.335Z,-1.38
2023-01-28T15:28:59.885Z,-1.41
2023-01-28T15:32:03.075Z,-1.46
2023-01-28T15:35:11.604Z,-1.46
2023-01-28T15:38:14.127Z,-1.43
2023-01-28T15:41:20.059Z,-1.41
2023-01-28T15:44:29.162Z,-1.46
2023-01-28T15:47:32.070Z,-1.45
2023-01-28T15:50:34.208Z,-1.42
2023-01-28T15:53:42.373Z,-1.50
2023-01-28T15:56:47.013Z,-1.45
2023-01-28T15:59:49.453Z,-1.56
2023-01-28T16:02:53.233Z,-1.57
2023-01-28T16:06:02.604Z,-1.61
2023-01-28T16:09:08.140Z,-1.54
2023-01-28T16:12:14.641Z,-1.60
2023-01-28T16:15:19.933Z,-1.51
2023-01-28T16:18:29.644Z,-1.57
2023-01-28T16:21:34.720Z,-1.62
2023-01-28T16:24:37.000Z,-1.56
2023-01-28T16:27:40.830Z,-1.58
2023-01-28T16:30:43.114Z,-1.51
2023-01-28T16:33:45.159Z,-1.44
2023-01-28T16:36:47.302Z,-1.49
2023-01-28T16:39:50.193Z,-1.48
2023-01-28T16:42:55.514Z,-1.42
2023-01-28T16:45:57.553Z,-1.32
2023-01-28T16:49:00.489Z,-1.41
2023-01-28T16:52:03.719Z,-1.42
2023-01-28T16:55:06.291Z,-1.26
2023-01-28T16:58:10.843Z,-1.33
2023-01-28T17:01:13.242Z,-1.20
2023-01-28T17:04:15.744Z,-1.35
2023-01-28T17:07:18.041Z,-1.37
2023-01-28T17:10:20.067Z,-1.39
2023-01-28T17:13:23.963Z,-1.45
2023-01-28T17:16:28.911Z,-1.53
2023-01-28T17:19:31.218Z,-1.36
2023-01-28T17:22:33.084Z,-1.33
2023-01-28T17:25:37.797Z,-1.41
2023-01-28T17:28:41.794Z,-1.32
2023-01-28T17:31:44.528Z,-1.37
2023-01-28T17:34:48.302Z,-1.42
2023-01-28T17:37:54.456Z,-1.41
2023-01-28T17:41:01.772Z,-1.35
2023-01-28T17:44:06.143Z,-1.24
2023-01-28T17:47:08.285Z,-1.36
2023-01-28T17:50:11.657Z,-1.36
2023-01-28T17:53:14.006Z,-1.35
2023-01-28T17:56:17.737Z,-1.32
2023-01-28T17:59:22.634Z,-1.30
2023-01-28T18:02:26.421Z,-1.26
2023-01-28T18:05:28.758Z,-1.27
2023-01-28T18:08:30.796Z,-1.22
2023-01-28T18:11:32.907Z,-1.21
2023-01-28T18:14:39.099Z,-1.15
2023-01-28T18:17:42.243Z,-1.15
2023-01-28T18:20:44.601Z,-1.17
2023-01-28T18:23:46.830Z,-1.12
2023-01-28T18:26:50.676Z,-1.09
2023-01-28T18:29:54.389Z,-1.05
2023-01-28T18:32:56.980Z,-1.08
2023-01-28T18:36:00.141Z,-1.07
2023-01-28T18:39:03.651Z,-1.03
2023-01-28T18:42:06.833Z,-1.03
2023-01-28T18:45:12.131Z,-1.06
2023-01-28T18:48:14.503Z,-1.03
2023-01-28T18:51:29.466Z,-0.98
2023-01-28T18:54:33.567Z,-1.01
2023-01-28T18:57:36.391Z,-1.00
2023-01-28T19:00:39.927Z,-1.02
2023-01-28T19:03:42.313Z,-0.99
2023-01-28T19:06:46.739Z,-0.96
2023-01-28T19:09:48.838Z,-0.90
2023-01-28T19:12:51.367Z,-0.91
2023-01-28T19:15:55.630Z,-0.98
2023-01-28T19:18:59.810Z,-1.01
2023-01-28T19:22:02.716Z,-0.93
2023-01-28T19:25:09.460Z,-0.92
2023-01-28T19:28:11.816Z,-0.89
2023-01-28T19:31:15.923Z,-0.92
2023-01-28T19:34:18.166Z,-0.89
2023-01-28T19:37:21.451Z,-0.86
2023-01-28T19:40:25.344Z,-0.85
2023-01-28T19:43:28.224Z,-0.84
2023-01-28T19:46:33.102Z,-0.89
2023-01-28T19:49:35.568Z,-0.89
2023-01-28T19:52:38.177Z,-0.91
2023-01-28T19:55:40.954Z,-0.91
2023-01-28T19:58:49.559Z,-0.87
2023-01-28T20:01:53.393Z,-0.85
2023-01-28T20:05:00.968Z,-0.62
2023-01-28T20:08:03.778Z,-0.50
2023-01-28T20:11:07.602Z,-0.36
2023-01-28T20:14:12.205Z,-0.43
2023-01-28T20:17:16.074Z,-0.44
2023-01-28T20:20:18.913Z,-0.31
2023-01-28T20:23:23.510Z,-0.33
2023-01-28T20:26:28.539Z,-0.33
2023-01-28T20:29:31.327Z,-0.29
2023-01-28T20:32:35.084Z,-0.20
2023-01-28T20:35:38.518Z,-0.17
2023-01-28T20:38:44.104Z,-0.16
2023-01-28T20:41:46.848Z,-0.11
2023-01-28T20:44:49.334Z,-0.10
2023-01-28T20:47:53.980Z,-0.07
2023-01-28T20:50:57.064Z,-0.07
2023-01-28T20:54:01.327Z,-0.08
2023-01-28T20:57:04.352Z,-0.03
2023-01-28T21:00:08.871Z,0.00
2023-01-28T21:03:12.501Z,-0.11
2023-01-28T21:06:15.801Z,-0.07
2023-01-28T21:09:19.552Z,0.01
2023-01-28T21:12:21.581Z,-0.08
2023-01-28T21:15:24.573Z,-0.04
2023-01-28T21:18:30.590Z,-0.07
2023-01-28T21:21:32.847Z,-0.08
2023-01-28T21:24:35.631Z,-0.10
2023-01-28T21:27:38.721Z,-0.08
2023-01-28T21:30:42.264Z,-0.07
2023-01-28T21:33:48.957Z,-0.10
2023-01-28T21:36:51.294Z,-0.11
2023-01-28T21:39:53.834Z,-0.17
2023-01-28T21:42:56.686Z,-0.18
2023-01-28T21:45:59.975Z,-0.19
2023-01-28T21:49:06.009Z,-0.16
2023-01-28T21:52:08.280Z,-0.07
2023-01-28T21:55:10.550Z,-0.16
2023-01-28T21:58:13.191Z,-0.25
2023-01-28T22:01:15.305Z,-0.20
2023-01-28T22:04:19.419Z,-0.23
2023-01-28T22:07:21.512Z,-0.29
2023-01-28T22:10:23.688Z,-0.23
2023-01-28T22:13:25.883Z,-0.26
2023-01-28T22:16:27.841Z,-0.30
2023-01-28T22:19:31.233Z,-0.33
2023-01-28T22:22:33.173Z,-0.34
2023-01-28T22:25:35.660Z,-0.35
2023-01-28T22:28:37.982Z,-0.38
2023-01-28T22:31:41.141Z,-0.34
2023-01-28T22:34:46.674Z,-0.35
2023-01-28T22:37:48.875Z,-0.37
2023-01-28T22:40:50.683Z,-0.40
2023-01-28T22:43:53.143Z,-0.57
2023-01-28T22:46:55.219Z,-0.53
2023-01-28T22:49:58.638Z,-0.59
2023-01-28T22:53:00.603Z,-0.55
2023-01-28T22:56:02.692Z,-0.56
2023-01-28T22:59:04.970Z,-0.50
2023-01-28T23:02:07.162Z,-0.49
2023-01-28T23:05:10.582Z,-0.48
2023-01-28T23:08:13.320Z,-0.48
2023-01-28T23:11:16.155Z,-0.42
2023-01-28T23:14:18.418Z,-0.46
2023-01-28T23:17:20.326Z,-0.43
2023-01-28T23:20:23.613Z,-0.46
2023-01-28T23:23:26.022Z,-0.45
2023-01-28T23:26:28.891Z,-0.51
2023-01-28T23:29:31.708Z,-0.52
2023-01-28T23:32:33.650Z,-0.52
2023-01-28T23:35:37.897Z,-0.53
2023-01-28T23:38:40.424Z,-0.59
2023-01-28T23:41:44.648Z,-0.58
2023-01-28T23:44:47.416Z,-0.59
2023-01-28T23:47:49.265Z,-0.58
2023-01-28T23:50:55.922Z,-0.57
2023-01-28T23:53:58.129Z,-0.55
2023-01-28T23:57:00.659Z,-0.52
